Umbuzeiro, Brazil
Current Conditions -  °F | °C
As of 6:00 AM on Thursday 18 Dec 2014 (Local Time) from SBKG Reporting Station
Broken Clouds Broken Clouds  
Wind Chill: 72°   Ceiling: 8000
Heat Index: 72°   Visibility: 4mi
Dew Point: 70°   Wind: 8mph
Humidity: 94%   Direction: 90°E
Pressure: 29.97"   Gusts: NA
Location:  7.7°S, 35.66°W
Report Text: SBKG 180900Z 09007KT 6000 SCT005 SCT016 BKN080 22/21 Q1015
Loading
Personal Weather Stations






























Interactive Weather Map New forecast layout! Learn more

10-Day Weather Forecast

Advertisements
Track Severe Weather on mobile